createdAt,value
2023-02-15T04:41:28.968Z,102175.03
2023-02-15T04:44:34.248Z,102175.03
2023-02-15T04:47:36.912Z,102171.69
2023-02-15T04:50:39.835Z,102167.38
2023-02-15T04:53:42.609Z,102163.19
2023-02-15T04:56:45.447Z,102173.63
2023-02-15T04:59:48.097Z,102173.78
2023-02-15T05:02:51.013Z,102170.47
2023-02-15T05:05:53.646Z,102174.16
2023-02-15T05:08:56.571Z,102170.00
2023-02-15T05:11:59.161Z,102172.78
2023-02-15T05:15:02.010Z,102174.84
2023-02-15T05:18:08.624Z,102173.22
2023-02-15T05:21:11.957Z,102177.59
2023-02-15T05:24:32.994Z,102174.97
2023-02-15T05:27:54.329Z,102190.44
2023-02-15T05:31:16.100Z,102185.28
2023-02-15T05:34:19.110Z,102192.91
2023-02-15T05:37:21.682Z,102198.25
2023-02-15T05:40:24.613Z,102203.53
2023-02-15T05:43:27.412Z,102209.63
2023-02-15T05:46:30.240Z,102204.16
2023-02-15T05:49:32.994Z,102204.94
2023-02-15T05:52:35.883Z,102216.00
2023-02-15T05:55:40.009Z,102205.69
2023-02-15T05:58:43.452Z,102203.28
2023-02-15T06:01:46.358Z,102221.19
2023-02-15T06:04:49.259Z,102215.31
2023-02-15T06:07:51.978Z,102220.63
2023-02-15T06:10:54.941Z,102217.31
2023-02-15T06:13:57.538Z,102216.66
2023-02-15T06:17:01.152Z,102217.81
2023-02-15T06:20:04.937Z,102218.06
2023-02-15T06:23:08.343Z,102223.41
2023-02-15T06:26:10.977Z,102225.41
2023-02-15T06:29:14.014Z,102219.91
2023-02-15T06:32:16.744Z,102231.44
2023-02-15T06:35:19.784Z,102225.88
2023-02-15T06:38:22.826Z,102226.47
2023-02-15T06:41:25.913Z,102229.63
2023-02-15T06:44:29.274Z,102237.84
2023-02-15T06:47:32.346Z,102243.47
2023-02-15T06:50:35.896Z,102239.59
2023-02-15T06:53:38.798Z,102239.19
2023-02-15T06:56:41.508Z,102239.53
2023-02-15T06:59:45.223Z,102240.06
2023-02-15T07:02:48.237Z,102235.31
2023-02-15T07:05:55.319Z,102234.91
2023-02-15T07:08:57.893Z,102237.81
2023-02-15T07:12:19.413Z,102233.03
2023-02-15T07:15:22.404Z,102228.25
2023-02-15T07:18:25.464Z,102232.81
2023-02-15T07:21:28.811Z,102235.03
2023-02-15T07:24:31.791Z,102236.94
2023-02-15T07:27:34.575Z,102234.66
2023-02-15T07:30:37.738Z,102234.06
2023-02-15T07:33:40.409Z,102231.72
2023-02-15T07:36:45.376Z,102230.25
2023-02-15T07:39:48.057Z,102231.31
2023-02-15T07:42:54.190Z,102230.53
2023-02-15T07:46:05.498Z,102226.37
2023-02-15T07:49:09.176Z,102222.50
2023-02-15T07:52:12.254Z,102226.50
2023-02-15T07:55:15.520Z,102222.94
2023-02-15T07:58:18.333Z,102229.91
2023-02-15T08:01:23.066Z,102223.66
2023-02-15T08:04:25.950Z,102223.59
2023-02-15T08:07:28.743Z,102222.75
2023-02-15T08:10:50.386Z,102213.22
2023-02-15T08:14:07.806Z,102214.34
2023-02-15T08:17:11.180Z,102214.56
2023-02-15T08:20:14.408Z,102205.12
2023-02-15T08:23:17.330Z,102198.19
2023-02-15T08:26:20.306Z,102201.69
2023-02-15T08:29:27.050Z,102207.78
2023-02-15T08:32:29.743Z,102200.88
2023-02-15T08:35:32.723Z,102199.19
2023-02-15T08:38:35.690Z,102192.22
2023-02-15T08:41:40.428Z,102199.19
2023-02-15T08:44:43.068Z,102191.38
2023-02-15T08:47:46.035Z,102193.09
2023-02-15T08:50:48.821Z,102187.84
2023-02-15T08:53:54.581Z,102184.41
2023-02-15T08:56:57.183Z,102189.69
2023-02-15T09:00:01.504Z,102196.66
2023-02-15T09:03:05.897Z,102193.81
2023-02-15T09:06:08.876Z,102190.22
2023-02-15T09:09:12.312Z,102185.97
2023-02-15T09:12:15.591Z,102190.41
2023-02-15T09:15:18.326Z,102182.63
2023-02-15T09:18:21.203Z,102178.38
2023-02-15T09:21:25.732Z,102177.50
2023-02-15T09:24:32.550Z,102181.81
2023-02-15T09:27:35.215Z,102178.31
2023-02-15T09:30:38.319Z,102177.34
2023-02-15T09:33:41.837Z,102179.06
2023-02-15T09:36:45.867Z,102179.16
2023-02-15T09:39:49.248Z,102170.44
2023-02-15T09:43:06.325Z,102173.75
2023-02-15T09:46:58.604Z,102169.16
2023-02-15T09:50:15.396Z,102170.84
2023-02-15T09:53:24.370Z,102167.38
2023-02-15T09:56:56.546Z,102163.09
2023-02-15T10:00:22.910Z,102154.41
2023-02-15T10:03:25.902Z,102155.19
2023-02-15T10:06:57.943Z,102154.28
2023-02-15T10:10:23.968Z,102145.50
2023-02-15T10:13:38.768Z,102155.94
2023-02-15T10:17:10.847Z,102142.00
2023-02-15T10:20:35.393Z,102147.22
2023-02-15T10:24:19.165Z,102135.75
2023-02-15T10:27:22.838Z,102133.91
2023-02-15T10:30:33.854Z,102136.53
2023-02-15T10:33:36.734Z,102136.59
2023-02-15T10:37:36.860Z,102137.41
2023-02-15T10:41:00.779Z,102144.28
2023-02-15T10:44:30.387Z,102132.03
2023-02-15T10:47:48.341Z,102125.75
2023-02-15T10:50:56.439Z,102121.22
2023-02-15T10:54:19.979Z,102121.06
2023-02-15T10:57:43.684Z,102108.59
2023-02-15T11:00:52.054Z,102110.34
2023-02-15T11:04:13.723Z,102108.56
2023-02-15T11:07:33.001Z,102105.09
2023-02-15T11:10:39.441Z,102098.75
2023-02-15T11:13:51.082Z,102090.94
2023-02-15T11:17:00.503Z,102088.16
2023-02-15T11:20:15.850Z,102082.88
2023-02-15T11:23:19.769Z,102083.47
2023-02-15T11:26:35.889Z,102073.78
2023-02-15T11:29:41.847Z,102076.28
2023-02-15T11:32:52.297Z,102069.41
2023-02-15T11:36:04.282Z,102073.78
2023-02-15T11:39:12.929Z,102057.88
2023-02-15T11:42:21.892Z,102061.03
2023-02-15T11:45:29.301Z,102055.44
2023-02-15T11:48:33.518Z,102048.53
2023-02-15T11:51:36.507Z,102043.19
2023-02-15T11:54:51.099Z,102037.69
2023-02-15T11:57:59.806Z,102037.37
2023-02-15T12:01:07.966Z,102034.84
2023-02-15T12:04:29.315Z,102033.34
2023-02-15T12:07:41.675Z,102033.78
2023-02-15T12:11:15.382Z,102030.94
2023-02-15T12:14:18.025Z,102023.66
2023-02-15T12:17:29.831Z,102024.28
2023-02-15T12:20:35.024Z,102020.84
2023-02-15T12:23:46.949Z,102020.84
2023-02-15T12:27:16.702Z,102007.56
2023-02-15T12:30:27.565Z,102007.19
2023-02-15T12:33:35.953Z,101998.88
2023-02-15T12:36:51.832Z,101997.41
2023-02-15T12:39:57.265Z,101992.84
2023-02-15T12:43:00.533Z,101990.84
2023-02-15T12:46:27.332Z,101985.47
2023-02-15T12:49:38.412Z,101984.41
2023-02-15T12:52:41.393Z,101971.59
2023-02-15T12:55:57.796Z,101973.97
2023-02-15T12:59:06.932Z,101971.81
2023-02-15T13:02:23.127Z,101960.13
2023-02-15T13:05:41.172Z,101964.78
2023-02-15T13:08:51.456Z,101954.66
2023-02-15T13:11:54.958Z,101950.25
2023-02-15T13:15:00.062Z,101941.34
2023-02-15T13:18:05.159Z,101946.16
2023-02-15T13:21:13.250Z,101938.97
2023-02-15T13:24:23.123Z,101944.25
2023-02-15T13:27:36.112Z,101936.91
2023-02-15T13:30:47.132Z,101934.06
2023-02-15T13:33:57.795Z,101925.13
2023-02-15T13:37:17.703Z,101923.66
2023-02-15T13:40:41.700Z,101926.50
2023-02-15T13:44:10.575Z,101929.22
2023-02-15T13:47:45.882Z,101923.81
2023-02-15T13:51:13.452Z,101926.09
2023-02-15T13:54:42.474Z,101911.81
2023-02-15T13:57:58.322Z,101909.88
2023-02-15T14:01:33.154Z,101911.87
2023-02-15T14:04:53.274Z,101906.06
2023-02-15T14:08:09.947Z,101908.56
2023-02-15T14:11:25.160Z,101905.97
2023-02-15T14:14:54.359Z,101903.72
2023-02-15T14:18:20.535Z,101899.38
2023-02-15T14:21:32.738Z,101900.03
2023-02-15T14:24:46.210Z,101897.78
2023-02-15T14:28:17.776Z,101901.94
2023-02-15T14:31:31.197Z,101896.47
2023-02-15T14:34:59.990Z,101901.81
2023-02-15T14:38:40.850Z,101902.62
2023-02-15T14:41:54.386Z,101903.44
2023-02-15T14:45:28.750Z,101905.66
2023-02-15T14:48:43.670Z,101899.69
2023-02-15T14:51:51.037Z,101890.56
2023-02-15T14:54:55.253Z,101883.12
2023-02-15T14:57:59.445Z,101890.69
2023-02-15T15:01:10.789Z,101888.00
2023-02-15T15:04:25.073Z,101886.28
2023-02-15T15:07:36.366Z,101877.72
2023-02-15T15:10:47.741Z,101871.84
2023-02-15T15:14:01.510Z,101871.66
2023-02-15T15:17:05.889Z,101876.81
2023-02-15T15:20:51.878Z,101861.88
2023-02-15T15:23:57.103Z,101873.22
2023-02-15T15:27:37.133Z,101863.22
2023-02-15T15:30:42.824Z,101867.28
2023-02-15T15:34:00.796Z,101862.12
2023-02-15T15:37:12.688Z,101857.88
2023-02-15T15:40:55.402Z,101863.72
2023-02-15T15:44:29.464Z,101864.81
2023-02-15T15:47:41.394Z,101875.16
2023-02-15T15:50:44.732Z,101864.31
2023-02-15T15:53:54.339Z,101864.06
2023-02-15T15:57:02.237Z,101870.81
2023-02-15T16:00:24.134Z,101863.94
2023-02-15T16:03:29.149Z,101865.91
2023-02-15T16:06:39.467Z,101859.22
2023-02-15T16:09:43.210Z,101866.34
2023-02-15T16:12:49.718Z,101861.22
2023-02-15T16:15:56.250Z,101863.00
2023-02-15T16:19:00.583Z,101867.63
2023-02-15T16:22:04.697Z,101862.47
2023-02-15T16:25:28.592Z,101877.28
2023-02-15T16:28:32.164Z,101869.53
2023-02-15T16:31:34.959Z,101872.22
2023-02-15T16:34:37.815Z,101872.28
2023-02-15T16:37:40.729Z,101869.69
2023-02-15T16:40:53.719Z,101877.59
2023-02-15T16:44:17.282Z,101875.00
2023-02-15T16:47:32.640Z,101883.75
2023-02-15T16:50:39.265Z,101879.41
2023-02-15T16:53:49.051Z,101879.44
2023-02-15T16:56:52.603Z,101872.47
2023-02-15T17:00:01.682Z,101877.72
2023-02-15T17:03:26.950Z,101876.91
2023-02-15T17:06:30.690Z,101879.53
